SBRF/REC METAR and TAF weather

Enter ICAO airport designator
Station Type Date Time Source
SBRF METAR 2019/06/26 18:00 UTC NOAA

SBRF 261800Z 12010KT 090V150 9999 VCSH SCT020 FEW025TCU BKN070 28/21 Q1015


Station Type Date Time Source
SBRF Decoded METAR 2019/06/26 18:00 UTC NOAA

Recife Aeroporto , Brazil (SBRF) 08-04S 034-51W
Jun 26, 2019 - 02:00 PM EDT / 2019.06.26 1800 UTC
Wind: from the ESE (120 degrees) at 12 MPH (10 KT) (direction variable):0
Visibility: greater than 7 mile(s):0
Sky conditions: mostly cloudy
Weather: showers in the vicinity; Towering cumulus clouds observed
Temperature: 82 F (28 C)
Dew Point: 69 F (21 C)
Relative Humidity: 65%
Pressure (altimeter): 29.97 in. Hg (1015 hPa)
ob: SBRF 261800Z 12010KT 090V150 9999 VCSH SCT020 FEW025TCU BKN070 28/21 Q1015
cycle: 18

Station Type Date Time Source
SBRF TAF 2019/06/26 18:57 UTC NOAA

TAF SBRF 261600Z 2618/2718 16010KT 9999 SCT025 TN23/2708Z TX26/2717Z
BECMG 2701/2702 18005KT FEW020
BECMG 2713/2714 16010KT SCT023
RMK PCQ

Example: see airport list